Time;durP1;ratioP1;P1;durP2;ratioP2;P2;SDS_P1;SDS_P2;PMS_P1;PMS_P2;Temp;Humidity;BMP_temperature;BMP_pressure;BME280_temperature;BME280_humidity;BME280_pressure;Samples;Min_cycle;Max_cycle;Signal;HPM_P1;HPM_P2
2022/02/24 00:00:36;;;;;;;2.63;0.90;;;;;;;;;;4562119;28;20044;-59
2022/02/24 00:02:47;;;;;;;2.10;1.00;;;;;;;;;;4559345;28;20637;-58
2022/02/24 00:04:57;;;;;;;2.70;1.10;;;;;;;;;;4559612;28;20041;-59
2022/02/24 00:07:08;;;;;;;2.40;1.10;;;;;;;;;;4561364;28;20741;-58
2022/02/24 00:09:18;;;;;;;2.90;1.00;;;;;;;;;;4558829;27;20028;-58
2022/02/24 00:11:29;;;;;;;1.67;0.93;;;;;;;;;;4560879;28;20163;-58
2022/02/24 00:13:39;;;;;;;2.17;0.93;;;;;;;;;;4559737;28;20036;-59
2022/02/24 00:15:49;;;;;;;2.93;0.87;;;;;;;;;;4558230;28;20409;-58
2022/02/24 00:18:00;;;;;;;2.80;0.83;;;;;;;;;;4561872;28;20039;-59
2022/02/24 00:20:12;;;;;;;1.77;0.77;;;;;;;;;;4561185;28;20039;-59
2022/02/24 00:22:22;;;;;;;1.27;0.75;;;;;;;;;;4559907;28;20041;-59
2022/02/24 00:24:33;;;;;;;1.93;0.80;;;;;;;;;;4563780;28;20786;-59
2022/02/24 00:26:43;;;;;;;2.70;1.00;;;;;;;;;;4559178;28;22130;-59
2022/02/24 00:28:54;;;;;;;2.63;1.03;;;;;;;;;;4557748;28;20032;-59
2022/02/24 00:31:04;;;;;;;2.07;0.90;;;;;;;;;;4559408;28;20038;-59
2022/02/24 00:33:15;;;;;;;2.77;1.10;;;;;;;;;;4546075;28;20029;-59
2022/02/24 00:35:25;;;;;;;1.80;1.00;;;;;;;;;;4559010;28;20098;-59
2022/02/24 00:37:36;;;;;;;2.17;0.93;;;;;;;;;;4561008;27;20044;-59
2022/02/24 00:39:46;;;;;;;2.10;0.90;;;;;;;;;;4560533;28;20086;-59
2022/02/24 00:41:57;;;;;;;2.57;1.00;;;;;;;;;;4560328;28;20045;-59
2022/02/24 00:44:07;;;;;;;1.57;0.80;;;;;;;;;;4560389;28;20036;-59
2022/02/24 00:46:18;;;;;;;1.93;0.83;;;;;;;;;;4559311;28;20037;-59
2022/02/24 00:48:29;;;;;;;2.85;0.80;;;;;;;;;;4558423;28;20127;-60
2022/02/24 00:50:39;;;;;;;1.47;0.80;;;;;;;;;;4560081;28;20051;-59
2022/02/24 00:52:50;;;;;;;2.63;1.20;;;;;;;;;;4560199;28;20039;-59
2022/02/24 00:55:00;;;;;;;2.03;0.80;;;;;;;;;;4561704;28;20191;-59
2022/02/24 00:57:11;;;;;;;1.77;0.80;;;;;;;;;;4558611;28;27999;-59
2022/02/24 00:59:21;;;;;;;1.17;0.80;;;;;;;;;;4559383;28;20128;-59
2022/02/24 01:01:32;;;;;;;1.87;0.83;;;;;;;;;;4558548;28;20032;-60
2022/02/24 01:03:42;;;;;;;1.40;0.90;;;;;;;;;;4558292;28;23279;-59
2022/02/24 01:05:53;;;;;;;1.37;0.80;;;;;;;;;;4559817;28;20551;-59
2022/02/24 01:08:03;;;;;;;1.87;0.87;;;;;;;;;;4559473;28;20464;-59
2022/02/24 01:10:14;;;;;;;2.03;0.90;;;;;;;;;;4559960;28;20046;-59
2022/02/24 01:12:25;;;;;;;3.30;0.90;;;;;;;;;;4562585;28;20028;-59
2022/02/24 01:14:36;;;;;;;2.13;0.97;;;;;;;;;;4557789;28;20047;-59
2022/02/24 01:16:46;;;;;;;2.45;0.93;;;;;;;;;;4557556;28;20498;-59
2022/02/24 01:18:57;;;;;;;1.20;0.90;;;;;;;;;;4558307;27;36762;-59
2022/02/24 01:21:07;;;;;;;2.17;0.83;;;;;;;;;;4560912;28;20044;-59
2022/02/24 01:23:18;;;;;;;1.30;0.80;;;;;;;;;;4559462;28;22514;-59
2022/02/24 01:25:28;;;;;;;2.30;1.00;;;;;;;;;;4560509;28;20033;-59
2022/02/24 01:27:39;;;;;;;3.23;1.20;;;;;;;;;;4558635;28;33509;-59
2022/02/24 01:29:49;;;;;;;2.67;0.97;;;;;;;;;;4576951;27;20419;-59
2022/02/24 01:32:01;;;;;;;2.57;1.20;;;;;;;;;;4561034;28;37502;-59
2022/02/24 01:34:11;;;;;;;;;;;;;;;;;;4559284;28;20042;-56
2022/02/24 01:36:21;;;;;;;2.28;1.10;;;;;;;;;;4560921;28;19961;-57
2022/02/24 01:38:32;;;;;;;2.87;1.17;;;;;;;;;;4561763;28;20043;-56
2022/02/24 01:40:42;;;;;;;1.83;1.10;;;;;;;;;;4560857;28;20035;-57
2022/02/24 01:42:53;;;;;;;1.80;0.90;;;;;;;;;;4559442;28;20036;-57
2022/02/24 01:45:04;;;;;;;2.43;1.23;;;;;;;;;;4557445;28;20039;-56
2022/02/24 01:47:15;;;;;;;2.42;1.10;;;;;;;;;;4558125;27;20047;-57
2022/02/24 01:49:25;;;;;;;1.53;0.87;;;;;;;;;;4559526;28;20392;-56
2022/02/24 01:51:36;;;;;;;2.40;0.80;;;;;;;;;;4559492;28;20533;-56
2022/02/24 01:53:47;;;;;;;1.92;0.80;;;;;;;;;;4558144;28;20032;-56
2022/02/24 01:55:57;;;;;;;1.00;0.70;;;;;;;;;;4556681;28;22060;-56
2022/02/24 01:58:08;;;;;;;2.87;1.10;;;;;;;;;;4558079;28;20536;-56
2022/02/24 02:00:19;;;;;;;2.38;1.08;;;;;;;;;;4557417;28;20029;-56
2022/02/24 02:02:29;;;;;;;3.37;1.13;;;;;;;;;;4560995;28;20106;-56
2022/02/24 02:04:39;;;;;;;2.50;0.80;;;;;;;;;;4556825;28;20024;-56
2022/02/24 02:06:51;;;;;;;1.80;0.80;;;;;;;;;;4556449;28;20039;-57
2022/02/24 02:09:01;;;;;;;3.20;1.13;;;;;;;;;;4560729;28;20047;-57
2022/02/24 02:11:12;;;;;;;3.67;1.10;;;;;;;;;;4559651;28;20093;-56
2022/02/24 02:13:22;;;;;;;2.43;1.00;;;;;;;;;;4574549;27;20123;-56
2022/02/24 02:15:33;;;;;;;3.92;1.00;;;;;;;;;;4558130;28;20037;-56
2022/02/24 02:17:44;;;;;;;1.83;0.90;;;;;;;;;;4557748;28;22462;-57
2022/02/24 02:19:54;;;;;;;2.57;0.87;;;;;;;;;;4558069;28;20037;-57
2022/02/24 02:22:05;;;;;;;1.90;1.00;;;;;;;;;;4557334;28;32785;-57
2022/02/24 02:24:16;;;;;;;1.73;0.97;;;;;;;;;;4558518;28;20033;-56
2022/02/24 02:26:26;;;;;;;1.33;0.80;;;;;;;;;;4557818;28;20483;-57
2022/02/24 02:28:36;;;;;;;3.10;0.93;;;;;;;;;;4556521;28;20043;-56
2022/02/24 02:30:47;;;;;;;3.10;0.83;;;;;;;;;;4556711;28;20024;-56
2022/02/24 02:32:58;;;;;;;2.60;1.10;;;;;;;;;;4544322;28;20056;-56
2022/02/24 02:35:09;;;;;;;;;;;;;;;;;;4558218;28;20625;-56
2022/02/24 02:37:20;;;;;;;3.67;1.10;;;;;;;;;;4558053;28;19916;-56
2022/02/24 02:39:30;;;;;;;2.70;0.90;;;;;;;;;;4556508;28;20099;-56
2022/02/24 02:41:43;;;;;;;2.30;1.00;;;;;;;;;;4554898;28;28122;-56
2022/02/24 02:43:54;;;;;;;2.65;1.15;;;;;;;;;;4557159;28;20029;-56
2022/02/24 02:46:05;;;;;;;3.03;1.03;;;;;;;;;;4559415;28;20069;-56
2022/02/24 02:48:15;;;;;;;1.70;0.98;;;;;;;;;;4558536;28;20041;-56
2022/02/24 02:50:25;;;;;;;1.77;1.00;;;;;;;;;;4558531;28;20033;-56
2022/02/24 02:52:36;;;;;;;3.37;1.10;;;;;;;;;;4557530;28;20044;-57
2022/02/24 02:54:50;;;;;;;3.53;1.00;;;;;;;;;;4561554;28;20055;-56
2022/02/24 02:57:02;;;;;;;1.85;0.90;;;;;;;;;;4562558;27;20039;-56
2022/02/24 02:59:14;;;;;;;1.48;0.90;;;;;;;;;;4561653;28;20036;-56
2022/02/24 03:01:25;;;;;;;2.20;0.90;;;;;;;;;;4560766;28;20051;-56
2022/02/24 03:03:35;;;;;;;2.67;0.97;;;;;;;;;;4560030;28;20043;-56
2022/02/24 03:05:46;;;;;;;1.60;0.90;;;;;;;;;;4566155;28;20021;-56
2022/02/24 03:07:56;;;;;;;3.47;1.20;;;;;;;;;;4547447;28;20891;-56
2022/02/24 03:10:07;;;;;;;3.70;1.00;;;;;;;;;;4561849;28;20568;-56
2022/02/24 03:12:18;;;;;;;4.53;1.10;;;;;;;;;;4562127;28;20033;-56
2022/02/24 03:14:30;;;;;;;2.45;1.17;;;;;;;;;;4563399;28;20748;-57
2022/02/24 03:16:40;;;;;;;2.20;0.90;;;;;;;;;;4559685;28;20132;-56
2022/02/24 03:18:51;;;;;;;1.97;0.90;;;;;;;;;;4561462;28;20027;-56
2022/02/24 03:21:01;;;;;;;3.10;1.27;;;;;;;;;;4562670;28;20036;-56
2022/02/24 03:23:12;;;;;;;3.43;1.07;;;;;;;;;;4560741;28;20098;-56
2022/02/24 03:25:22;;;;;;;1.07;0.73;;;;;;;;;;4561668;28;23737;-56
2022/02/24 03:27:33;;;;;;;3.10;1.23;;;;;;;;;;4544839;28;20037;-57
2022/02/24 03:29:43;;;;;;;2.03;0.97;;;;;;;;;;4557646;28;20043;-56
2022/02/24 03:31:54;;;;;;;2.67;1.00;;;;;;;;;;4562935;28;20082;-56
2022/02/24 03:34:05;;;;;;;;;;;;;;;;;;4560608;28;20546;-56
2022/02/24 03:36:15;;;;;;;1.20;0.88;;;;;;;;;;4560566;28;19923;-56
2022/02/24 03:38:26;;;;;;;1.90;1.00;;;;;;;;;;4557862;28;20044;-57
2022/02/24 03:40:36;;;;;;;2.77;0.90;;;;;;;;;;4559335;28;20047;-56
2022/02/24 03:42:51;;;;;;;2.33;0.90;;;;;;;;;;4561384;28;20071;-56
2022/02/24 03:45:02;;;;;;;2.08;0.90;;;;;;;;;;4557913;28;20040;-56
2022/02/24 03:47:13;;;;;;;2.58;1.00;;;;;;;;;;4533902;28;20034;-56
2022/02/24 03:49:23;;;;;;;2.87;1.20;;;;;;;;;;4560058;28;20036;-55
2022/02/24 03:51:33;;;;;;;3.97;1.03;;;;;;;;;;4561341;28;30146;-57
2022/02/24 03:53:45;;;;;;;3.33;1.10;;;;;;;;;;4562152;28;20025;-56
2022/02/24 03:55:55;;;;;;;2.33;1.00;;;;;;;;;;4560512;28;20513;-57
2022/02/24 03:58:06;;;;;;;2.47;1.33;;;;;;;;;;4561511;28;20032;-57
2022/02/24 04:00:16;;;;;;;1.90;0.93;;;;;;;;;;4561191;28;20031;-57
2022/02/24 04:02:27;;;;;;;2.53;1.27;;;;;;;;;;4563871;28;20144;-58
2022/02/24 04:04:37;;;;;;;2.20;1.00;;;;;;;;;;4560022;28;20355;-57
2022/02/24 04:06:48;;;;;;;4.10;1.20;;;;;;;;;;4561874;28;20599;-57
2022/02/24 04:08:58;;;;;;;2.80;1.17;;;;;;;;;;4559273;28;20036;-58
2022/02/24 04:11:09;;;;;;;2.60;0.93;;;;;;;;;;4562791;28;20043;-57
2022/02/24 04:13:19;;;;;;;2.73;1.10;;;;;;;;;;4561629;28;20042;-57
2022/02/24 04:15:30;;;;;;;2.30;1.10;;;;;;;;;;4559207;28;20036;-58
2022/02/24 04:17:40;;;;;;;2.90;1.00;;;;;;;;;;4557853;28;27814;-57
2022/02/24 04:19:51;;;;;;;1.50;0.70;;;;;;;;;;4561420;28;20601;-58
2022/02/24 04:22:01;;;;;;;2.17;0.80;;;;;;;;;;4560078;28;31849;-57
2022/02/24 04:24:12;;;;;;;2.30;1.30;;;;;;;;;;4564810;28;20028;-57
2022/02/24 04:26:22;;;;;;;2.17;1.10;;;;;;;;;;4560672;28;20040;-57
2022/02/24 04:28:33;;;;;;;3.50;1.10;;;;;;;;;;4559945;28;20067;-57
2022/02/24 04:30:43;;;;;;;1.77;0.90;;;;;;;;;;4559972;28;30427;-60
2022/02/24 04:32:53;;;;;;;4.07;1.10;;;;;;;;;;4560247;28;20187;-57
2022/02/24 04:35:04;;;;;;;2.37;1.00;;;;;;;;;;4560174;28;29271;-58
2022/02/24 04:37:15;;;;;;;5.43;1.60;;;;;;;;;;4543493;28;20088;-58
2022/02/24 04:39:25;;;;;;;3.07;1.00;;;;;;;;;;4561611;28;20032;-58
2022/02/24 04:41:35;;;;;;;2.43;1.00;;;;;;;;;;4559241;28;20425;-58
2022/02/24 04:43:46;;;;;;;2.97;1.20;;;;;;;;;;4559486;28;20035;-58
2022/02/24 04:45:56;;;;;;;3.17;1.00;;;;;;;;;;4559929;28;20036;-59
2022/02/24 04:48:07;;;;;;;2.17;1.10;;;;;;;;;;4558587;28;35165;-59
2022/02/24 04:50:18;;;;;;;2.33;1.00;;;;;;;;;;4559683;28;20043;-58
2022/02/24 04:52:28;;;;;;;1.90;0.93;;;;;;;;;;4557173;28;28424;-58
2022/02/24 04:54:39;;;;;;;1.73;1.07;;;;;;;;;;4559713;28;31016;-58
2022/02/24 04:56:49;;;;;;;2.80;1.03;;;;;;;;;;4559779;28;20043;-58
2022/02/24 04:58:59;;;;;;;2.57;0.90;;;;;;;;;;4559678;28;20040;-59
2022/02/24 05:01:10;;;;;;;2.77;1.00;;;;;;;;;;4547161;28;20128;-58
2022/02/24 05:03:20;;;;;;;3.27;1.10;;;;;;;;;;4558577;28;20033;-58
2022/02/24 05:05:31;;;;;;;2.50;1.00;;;;;;;;;;4560330;28;20857;-58
2022/02/24 05:07:41;;;;;;;3.67;1.27;;;;;;;;;;4557799;27;20037;-58
2022/02/24 05:09:52;;;;;;;3.80;1.23;;;;;;;;;;4560628;28;20040;-58
2022/02/24 05:12:02;;;;;;;3.40;1.20;;;;;;;;;;4560622;28;20025;-58
2022/02/24 05:14:13;;;;;;;3.03;1.17;;;;;;;;;;4561650;28;20040;-58
2022/02/24 05:16:23;;;;;;;3.10;1.40;;;;;;;;;;4559944;28;20028;-58
2022/02/24 05:18:34;;;;;;;2.27;1.00;;;;;;;;;;4558370;28;20469;-58
2022/02/24 05:20:44;;;;;;;3.33;1.17;;;;;;;;;;4560006;27;26343;-59
2022/02/24 05:22:55;;;;;;;2.30;1.00;;;;;;;;;;4561331;28;20037;-59
2022/02/24 05:25:06;;;;;;;2.60;1.10;;;;;;;;;;4561965;28;20504;-58
2022/02/24 05:27:17;;;;;;;;;;;;;;;;;;4559036;28;20561;-58
2022/02/24 05:29:27;;;;;;;3.20;1.40;;;;;;;;;;4556795;28;19912;-58
2022/02/24 05:31:38;;;;;;;3.97;1.40;;;;;;;;;;4562162;28;20461;-58
2022/02/24 05:33:48;;;;;;;2.13;1.00;;;;;;;;;;4558561;28;20029;-58
2022/02/24 05:36:00;;;;;;;2.50;1.00;;;;;;;;;;4560550;28;20123;-59
2022/02/24 05:38:10;;;;;;;2.90;0.90;;;;;;;;;;4558575;28;20040;-58
2022/02/24 05:40:21;;;;;;;3.63;1.30;;;;;;;;;;4557070;28;20036;-58
2022/02/24 05:42:31;;;;;;;2.67;1.00;;;;;;;;;;4557090;28;20064;-58
2022/02/24 05:44:42;;;;;;;2.97;1.10;;;;;;;;;;4558670;28;20123;-58
2022/02/24 05:46:52;;;;;;;2.23;1.10;;;;;;;;;;4557755;28;20060;-59
2022/02/24 05:49:03;;;;;;;2.90;1.00;;;;;;;;;;4559559;28;20457;-58
2022/02/24 05:51:13;;;;;;;2.13;0.90;;;;;;;;;;4558861;28;20144;-58
2022/02/24 05:53:24;;;;;;;3.13;1.00;;;;;;;;;;4561334;28;20040;-58
2022/02/24 05:55:35;;;;;;;3.17;1.03;;;;;;;;;;4558574;28;31828;-58
2022/02/24 05:57:46;;;;;;;;;;;;;;;;;;4558847;28;20055;-58
2022/02/24 05:59:56;;;;;;;2.30;1.23;;;;;;;;;;4557961;28;19923;-58
2022/02/24 06:02:07;;;;;;;3.43;1.20;;;;;;;;;;4559513;28;34251;-58
2022/02/24 06:04:18;;;;;;;2.40;0.93;;;;;;;;;;4558307;28;20036;-58
2022/02/24 06:06:28;;;;;;;2.85;0.82;;;;;;;;;;4558545;28;20032;-58
2022/02/24 06:08:38;;;;;;;2.60;1.00;;;;;;;;;;4558588;28;20401;-58
2022/02/24 06:10:49;;;;;;;2.33;0.90;;;;;;;;;;4561471;27;20438;-58
2022/02/24 06:13:00;;;;;;;3.55;1.02;;;;;;;;;;4558612;28;20047;-58
2022/02/24 06:15:11;;;;;;;3.10;1.40;;;;;;;;;;4557435;28;20416;-58
2022/02/24 06:17:21;;;;;;;2.45;1.45;;;;;;;;;;4558062;28;20032;-58
2022/02/24 06:19:32;;;;;;;2.20;1.17;;;;;;;;;;4558930;28;20465;-58
2022/02/24 06:21:42;;;;;;;2.47;1.00;;;;;;;;;;4559021;28;20063;-58
2022/02/24 06:23:53;;;;;;;2.80;1.43;;;;;;;;;;4560486;28;20028;-58
2022/02/24 06:26:03;;;;;;;3.13;1.17;;;;;;;;;;4560141;28;20036;-58
2022/02/24 06:28:14;;;;;;;3.03;1.20;;;;;;;;;;4558477;28;20032;-58
2022/02/24 06:30:24;;;;;;;3.00;0.90;;;;;;;;;;4560554;28;20044;-58
2022/02/24 06:32:37;;;;;;;2.13;1.10;;;;;;;;;;4561376;28;20036;-58
2022/02/24 06:34:48;;;;;;;3.75;1.00;;;;;;;;;;4565796;28;20032;-58
2022/02/24 06:36:58;;;;;;;2.93;1.07;;;;;;;;;;4560992;27;20040;-58
2022/02/24 06:39:09;;;;;;;2.37;1.30;;;;;;;;;;4562164;28;20156;-57
2022/02/24 06:41:20;;;;;;;2.37;1.47;;;;;;;;;;4562033;28;20074;-57
2022/02/24 06:43:31;;;;;;;2.45;1.60;;;;;;;;;;4562228;28;20037;-59
2022/02/24 06:45:41;;;;;;;3.63;1.70;;;;;;;;;;4561974;28;20040;-58
2022/02/24 06:47:51;;;;;;;4.10;2.50;;;;;;;;;;4562361;28;37635;-57
2022/02/24 06:50:03;;;;;;;3.90;2.40;;;;;;;;;;4561347;28;20039;-58
2022/02/24 06:52:15;;;;;;;4.03;1.73;;;;;;;;;;4561592;27;20933;-58
2022/02/24 06:54:25;;;;;;;3.60;1.53;;;;;;;;;;4560186;27;27370;-58
2022/02/24 06:56:36;;;;;;;2.60;1.40;;;;;;;;;;4560983;28;20509;-58
2022/02/24 06:58:47;;;;;;;3.63;1.20;;;;;;;;;;4560671;28;20033;-59
2022/02/24 07:00:58;;;;;;;2.37;1.03;;;;;;;;;;4560406;28;20041;-58
2022/02/24 07:03:09;;;;;;;2.75;1.10;;;;;;;;;;4561757;28;20040;-58
2022/02/24 07:05:19;;;;;;;3.07;0.90;;;;;;;;;;4562145;28;20476;-58
2022/02/24 07:07:32;;;;;;;2.20;1.10;;;;;;;;;;4558993;28;20043;-58
2022/02/24 07:09:43;;;;;;;1.52;0.88;;;;;;;;;;4561042;28;20032;-58
2022/02/24 07:11:54;;;;;;;3.03;1.20;;;;;;;;;;4560114;28;20033;-58
2022/02/24 07:14:05;;;;;;;2.53;0.90;;;;;;;;;;4560424;28;20024;-58
2022/02/24 07:16:15;;;;;;;2.63;1.00;;;;;;;;;;4559517;28;20036;-59
2022/02/24 07:18:26;;;;;;;2.73;1.07;;;;;;;;;;4560125;27;20079;-58
2022/02/24 07:20:36;;;;;;;2.50;1.07;;;;;;;;;;4560079;28;20036;-58
2022/02/24 07:22:47;;;;;;;4.13;1.40;;;;;;;;;;4560050;28;20289;-58
2022/02/24 07:24:57;;;;;;;3.53;1.10;;;;;;;;;;4556758;28;20651;-58
2022/02/24 07:27:07;;;;;;;2.43;1.00;;;;;;;;;;4559597;28;20074;-59
2022/02/24 07:29:18;;;;;;;1.97;0.80;;;;;;;;;;4556689;28;20037;-59
2022/02/24 07:31:29;;;;;;;1.73;0.93;;;;;;;;;;4562655;28;20056;-59
2022/02/24 07:33:41;;;;;;;2.08;1.02;;;;;;;;;;4559618;28;20052;-58
2022/02/24 07:35:51;;;;;;;3.17;1.15;;;;;;;;;;4561094;28;20562;-59
2022/02/24 07:38:01;;;;;;;1.50;0.90;;;;;;;;;;4559548;28;20036;-58
2022/02/24 07:40:12;;;;;;;2.53;1.30;;;;;;;;;;4560344;28;20066;-59
2022/02/24 07:42:22;;;;;;;3.00;1.27;;;;;;;;;;4557995;27;20052;-58
2022/02/24 07:44:33;;;;;;;2.10;0.80;;;;;;;;;;4560519;28;20032;-58
2022/02/24 07:46:43;;;;;;;1.93;0.80;;;;;;;;;;4545902;28;20021;-58
2022/02/24 07:48:54;;;;;;;2.63;0.93;;;;;;;;;;4558020;28;20089;-58
2022/02/24 07:51:04;;;;;;;1.60;0.83;;;;;;;;;;4562784;28;20044;-58
2022/02/24 07:53:15;;;;;;;1.60;0.77;;;;;;;;;;4561103;28;20059;-58
2022/02/24 07:55:25;;;;;;;2.80;0.90;;;;;;;;;;4557504;28;20040;-58
2022/02/24 07:57:40;;;;;;;1.13;0.70;;;;;;;;;;4563916;27;20128;-59
2022/02/24 07:59:51;;;;;;;1.40;0.98;;;;;;;;;;4560586;28;20032;-58
2022/02/24 08:02:02;;;;;;;1.70;0.83;;;;;;;;;;4558339;28;20517;-56
2022/02/24 08:04:12;;;;;;;1.90;0.80;;;;;;;;;;4560877;28;20088;-56
2022/02/24 08:06:22;;;;;;;3.00;1.10;;;;;;;;;;4558931;28;20373;-56
2022/02/24 08:08:33;;;;;;;3.30;1.10;;;;;;;;;;4559939;28;20037;-57
2022/02/24 08:10:43;;;;;;;1.77;0.83;;;;;;;;;;4559889;28;20024;-57
2022/02/24 08:12:54;;;;;;;3.40;1.10;;;;;;;;;;4560537;28;20621;-57
2022/02/24 08:15:06;;;;;;;2.07;0.90;;;;;;;;;;4558850;28;20079;-57
2022/02/24 08:17:16;;;;;;;2.08;1.05;;;;;;;;;;4558923;28;20036;-57
2022/02/24 08:19:27;;;;;;;2.27;0.90;;;;;;;;;;4559726;28;23972;-57
2022/02/24 08:21:37;;;;;;;4.73;1.67;;;;;;;;;;4559507;28;20036;-57
2022/02/24 08:23:47;;;;;;;3.93;1.10;;;;;;;;;;4559356;28;29217;-57
2022/02/24 08:25:58;;;;;;;3.53;1.20;;;;;;;;;;4555787;28;20032;-57
2022/02/24 08:28:08;;;;;;;1.43;0.87;;;;;;;;;;4558570;28;20028;-59
2022/02/24 08:30:42;;;;;;;2.60;0.90;;;;;;;;;;4559291;28;20596;-58
2022/02/24 08:33:12;;;;;;;2.25;0.90;;;;;;;;;;4561296;28;20671;-58
2022/02/24 08:35:24;;;;;;;2.40;0.77;;;;;;;;;;4565429;28;20567;-58
2022/02/24 08:37:35;;;;;;;1.83;0.90;;;;;;;;;;4546232;28;20041;-57
2022/02/24 08:39:46;;;;;;;1.35;0.80;;;;;;;;;;4562058;28;20039;-58
2022/02/24 08:41:56;;;;;;;3.37;1.10;;;;;;;;;;4559963;28;20045;-58
2022/02/24 08:44:13;;;;;;;3.47;1.13;;;;;;;;;;4559959;28;23574;-58
2022/02/24 08:46:24;;;;;;;1.77;0.82;;;;;;;;;;4562143;28;20032;-58
2022/02/24 08:48:35;;;;;;;2.33;0.90;;;;;;;;;;4559409;27;20110;-57
2022/02/24 08:50:45;;;;;;;1.90;0.80;;;;;;;;;;4562795;28;20027;-59
2022/02/24 08:52:56;;;;;;;2.17;1.00;;;;;;;;;;4563094;28;20036;-57
2022/02/24 08:55:07;;;;;;;2.67;0.70;;;;;;;;;;4559883;28;20554;-59
2022/02/24 08:57:17;;;;;;;1.57;0.80;;;;;;;;;;4561115;28;20033;-58
2022/02/24 08:59:28;;;;;;;1.60;0.70;;;;;;;;;;4561093;28;20124;-58
2022/02/24 09:01:38;;;;;;;1.33;0.70;;;;;;;;;;4558964;28;20568;-58
2022/02/24 09:03:48;;;;;;;2.27;0.93;;;;;;;;;;4558988;28;20025;-59
2022/02/24 09:05:59;;;;;;;1.80;0.80;;;;;;;;;;4561017;28;20516;-58
2022/02/24 09:08:09;;;;;;;1.60;0.90;;;;;;;;;;4560058;28;20099;-58
2022/02/24 09:10:20;;;;;;;2.17;0.70;;;;;;;;;;4560247;28;20033;-58
2022/02/24 09:12:30;;;;;;;1.90;0.87;;;;;;;;;;4560172;28;20040;-58
2022/02/24 09:14:41;;;;;;;1.33;0.80;;;;;;;;;;4560282;28;20083;-58
2022/02/24 09:16:51;;;;;;;1.83;0.70;;;;;;;;;;4563237;28;20064;-58
2022/02/24 09:19:02;;;;;;;1.53;0.80;;;;;;;;;;4558942;28;20032;-58
2022/02/24 09:21:13;;;;;;;1.50;0.75;;;;;;;;;;4559573;28;20032;-58
2022/02/24 09:23:23;;;;;;;3.40;1.60;;;;;;;;;;4562676;28;20047;-59
2022/02/24 09:25:34;;;;;;;2.23;1.00;;;;;;;;;;4560899;28;20110;-57
2022/02/24 09:27:44;;;;;;;2.50;1.00;;;;;;;;;;4559434;28;20028;-58
2022/02/24 09:29:55;;;;;;;2.00;1.00;;;;;;;;;;4558475;28;20109;-57
2022/02/24 09:32:06;;;;;;;1.25;0.68;;;;;;;;;;4563303;28;20039;-58
2022/02/24 09:34:16;;;;;;;2.20;0.90;;;;;;;;;;4560747;28;20426;-58
2022/02/24 09:36:27;;;;;;;1.97;0.90;;;;;;;;;;4559675;28;20519;-58
2022/02/24 09:38:38;;;;;;;2.80;1.07;;;;;;;;;;4576739;27;20558;-58
2022/02/24 09:40:52;;;;;;;2.50;0.80;;;;;;;;;;4561024;28;20036;-58
2022/02/24 09:43:04;;;;;;;1.40;1.00;;;;;;;;;;4560086;28;20055;-58
2022/02/24 09:45:14;;;;;;;1.55;0.73;;;;;;;;;;4561327;28;20040;-58
2022/02/24 09:47:26;;;;;;;2.40;1.00;;;;;;;;;;4560364;28;20036;-58
2022/02/24 09:49:39;;;;;;;1.10;0.70;;;;;;;;;;4561162;28;20033;-58
2022/02/24 09:51:50;;;;;;;1.73;0.70;;;;;;;;;;4563356;28;20020;-58
2022/02/24 09:54:01;;;;;;;1.70;0.80;;;;;;;;;;4560280;28;20784;-58
2022/02/24 09:56:20;;;;;;;2.72;0.80;;;;;;;;;;4560966;28;20068;-58
2022/02/24 09:58:31;;;;;;;1.90;0.80;;;;;;;;;;4562195;28;20134;-58
2022/02/24 10:00:42;;;;;;;;;;;;;;;;;;4563104;28;20028;-58
2022/02/24 10:02:52;;;;;;;1.80;0.75;;;;;;;;;;4560025;28;20368;-58
2022/02/24 10:05:10;;;;;;;2.70;0.70;;;;;;;;;;4561713;28;20118;-58
2022/02/24 10:07:25;;;;;;;1.80;0.80;;;;;;;;;;4559528;28;20587;-58
2022/02/24 10:09:35;;;;;;;0.90;0.50;;;;;;;;;;4561862;28;20040;-57
2022/02/24 10:11:46;;;;;;;2.57;1.00;;;;;;;;;;4559332;28;22543;-57
2022/02/24 10:13:57;;;;;;;1.23;0.73;;;;;;;;;;4561695;28;20044;-57
2022/02/24 10:16:08;;;;;;;2.63;0.80;;;;;;;;;;4560531;28;20056;-58
2022/02/24 10:18:20;;;;;;;1.92;0.95;;;;;;;;;;4558241;27;20592;-57
2022/02/24 10:20:55;;;;;;;1.67;0.70;;;;;;;;;;4560163;28;20669;-57
2022/02/24 10:23:06;;;;;;;1.25;0.63;;;;;;;;;;4560971;28;20036;-57
2022/02/24 10:25:17;;;;;;;3.47;0.65;;;;;;;;;;4558569;28;20028;-57
2022/02/24 10:27:34;;;;;;;2.13;1.73;;;;;;;;;;4559254;28;20029;-57
2022/02/24 10:30:03;;;;;;;1.85;0.80;;;;;;;;;;4557722;28;20044;-57
2022/02/24 10:32:35;;;;;;;2.17;0.70;;;;;;;;;;4562334;28;20032;-58
2022/02/24 10:34:45;;;;;;;2.70;0.77;;;;;;;;;;4561678;28;20846;-58
2022/02/24 10:36:56;;;;;;;2.83;1.00;;;;;;;;;;4559928;28;20032;-59
2022/02/24 10:39:10;;;;;;;1.20;0.77;;;;;;;;;;4557873;28;20044;-58
2022/02/24 10:41:31;;;;;;;2.15;0.70;;;;;;;;;;4561259;28;20036;-59
2022/02/24 10:43:44;;;;;;;2.28;0.82;;;;;;;;;;4544576;28;20036;-59
2022/02/24 10:46:00;;;;;;;1.42;0.70;;;;;;;;;;4559359;27;20028;-58
2022/02/24 10:48:11;;;;;;;2.30;0.80;;;;;;;;;;4534768;28;20581;-59
2022/02/24 10:50:43;;;;;;;1.53;0.70;;;;;;;;;;4558464;28;20037;-58
2022/02/24 10:53:06;;;;;;;2.38;0.80;;;;;;;;;;4561264;28;20127;-59
2022/02/24 10:55:16;;;;;;;2.42;0.75;;;;;;;;;;4557766;28;20047;-59
2022/02/24 10:57:27;;;;;;;1.53;0.87;;;;;;;;;;4557172;28;21344;-59
2022/02/24 10:59:40;;;;;;;1.43;0.70;;;;;;;;;;4558269;28;20028;-59
2022/02/24 11:01:50;;;;;;;1.92;0.90;;;;;;;;;;4556753;28;39306;-58
2022/02/24 11:04:03;;;;;;;2.77;1.10;;;;;;;;;;4545374;28;20100;-59
2022/02/24 11:06:14;;;;;;;3.50;0.80;;;;;;;;;;4558529;28;20033;-59
2022/02/24 11:08:26;;;;;;;2.05;0.80;;;;;;;;;;4558538;28;20105;-59
2022/02/24 11:10:37;;;;;;;2.35;1.00;;;;;;;;;;4556503;28;20036;-59
2022/02/24 11:12:47;;;;;;;2.17;1.00;;;;;;;;;;4557116;28;20528;-59
2022/02/24 11:14:58;;;;;;;1.63;0.97;;;;;;;;;;4559384;28;20040;-60
2022/02/24 11:17:11;;;;;;;3.15;0.90;;;;;;;;;;4561595;27;20036;-58
2022/02/24 11:19:22;;;;;;;3.00;1.00;;;;;;;;;;4561481;28;20127;-61
2022/02/24 11:21:32;;;;;;;3.33;0.80;;;;;;;;;;4561010;28;20454;-58
2022/02/24 11:23:45;;;;;;;2.23;0.90;;;;;;;;;;4564188;28;20396;-60
2022/02/24 11:26:34;;;;;;;2.72;1.00;;;;;;;;;;4562227;28;20047;-59
2022/02/24 11:28:57;;;;;;;1.40;0.77;;;;;;;;;;4522422;28;20052;-59
2022/02/24 11:31:16;;;;;;;2.70;0.85;;;;;;;;;;4552702;28;20044;-58
2022/02/24 11:33:27;;;;;;;2.90;1.42;;;;;;;;;;4561405;28;20868;-58
2022/02/24 11:35:38;;;;;;;3.05;1.00;;;;;;;;;;4565754;28;20029;-58
2022/02/24 11:37:55;;;;;;;2.43;0.93;;;;;;;;;;4561055;28;20033;-58
2022/02/24 11:40:27;;;;;;;2.92;0.98;;;;;;;;;;4563063;28;20047;-59
2022/02/24 11:42:40;;;;;;;2.83;1.20;;;;;;;;;;4559957;28;20045;-58
2022/02/24 11:44:50;;;;;;;3.17;1.17;;;;;;;;;;4560558;28;20756;-58
2022/02/24 11:47:05;;;;;;;2.23;0.83;;;;;;;;;;4560096;28;20033;-58
2022/02/24 11:49:16;;;;;;;2.08;0.93;;;;;;;;;;4564020;28;20024;-59
2022/02/24 11:51:26;;;;;;;2.07;0.80;;;;;;;;;;4562154;28;20676;-59
2022/02/24 11:53:39;;;;;;;1.70;0.90;;;;;;;;;;4559707;28;20078;-58
2022/02/24 11:55:51;;;;;;;1.50;0.75;;;;;;;;;;4561268;28;20665;-58
2022/02/24 11:58:38;;;;;;;1.10;0.60;;;;;;;;;;4560632;28;20024;-59
2022/02/24 12:01:11;;;;;;;1.83;0.90;;;;;;;;;;4558153;28;20041;-58
2022/02/24 12:03:50;;;;;;;1.33;0.65;;;;;;;;;;4560337;28;20044;-58
2022/02/24 12:06:06;;;;;;;2.83;0.60;;;;;;;;;;4562129;28;20709;-58
2022/02/24 12:08:18;;;;;;;1.88;0.82;;;;;;;;;;4561078;28;20028;-62
2022/02/24 12:10:46;;;;;;;1.85;0.73;;;;;;;;;;4560423;28;20119;-59
2022/02/24 12:13:26;;;;;;;1.92;0.90;;;;;;;;;;4565130;28;20772;-58
2022/02/24 12:15:36;;;;;;;1.63;0.60;;;;;;;;;;4558772;28;20029;-58
2022/02/24 12:17:49;;;;;;;2.17;0.90;;;;;;;;;;4560194;27;20032;-58
2022/02/24 12:20:02;;;;;;;2.00;0.85;;;;;;;;;;4562860;28;20040;-58
2022/02/24 12:22:15;;;;;;;2.20;0.90;;;;;;;;;;4561140;28;20048;-58
2022/02/24 12:24:26;;;;;;;1.65;0.80;;;;;;;;;;4560260;28;20068;-58
2022/02/24 12:26:40;;;;;;;3.03;1.10;;;;;;;;;;4559925;28;20571;-58
2022/02/24 12:28:51;;;;;;;1.23;0.73;;;;;;;;;;4560490;28;20140;-57
2022/02/24 12:31:01;;;;;;;1.90;0.80;;;;;;;;;;4561943;28;20024;-58
2022/02/24 12:33:16;;;;;;;1.37;0.90;;;;;;;;;;4561499;28;20438;-59
2022/02/24 12:35:29;;;;;;;1.35;0.90;;;;;;;;;;4559221;28;20048;-58
2022/02/24 12:37:41;;;;;;;1.65;0.80;;;;;;;;;;4559795;27;20032;-59
2022/02/24 12:39:51;;;;;;;1.55;0.80;;;;;;;;;;4563522;28;20631;-61
2022/02/24 12:42:04;;;;;;;1.50;0.80;;;;;;;;;;4560368;28;20218;-59
2022/02/24 12:44:24;;;;;;;1.23;0.82;;;;;;;;;;4560658;28;20567;-59
2022/02/24 12:46:35;;;;;;;2.63;1.20;;;;;;;;;;4561019;28;20037;-58
2022/02/24 12:48:45;;;;;;;0.90;0.70;;;;;;;;;;4558322;27;31619;-60
2022/02/24 12:50:55;;;;;;;1.70;0.87;;;;;;;;;;4560602;28;35396;-59
2022/02/24 12:53:17;;;;;;;1.23;0.83;;;;;;;;;;4563083;28;20042;-59
2022/02/24 12:55:28;;;;;;;;;;;;;;;;;;4563878;28;20060;-58
2022/02/24 12:57:38;;;;;;;1.80;0.70;;;;;;;;;;4559775;27;19939;-58
2022/02/24 12:59:48;;;;;;;2.03;0.90;;;;;;;;;;4558093;28;20087;-60
2022/02/24 13:01:59;;;;;;;1.60;0.80;;;;;;;;;;4559468;28;20072;-57
2022/02/24 13:04:16;;;;;;;1.30;0.80;;;;;;;;;;4562559;28;20032;-57
2022/02/24 13:06:33;;;;;;;1.42;0.90;;;;;;;;;;4564281;28;20136;-58
2022/02/24 13:11:17;;;;;;;1.48;0.80;;;;;;;;;;4560363;28;20628;-58
2022/02/24 13:13:28;;;;;;;1.42;0.75;;;;;;;;;;4577014;27;20041;-58
2022/02/24 13:15:39;;;;;;;1.67;0.90;;;;;;;;;;4544656;28;20033;-62